Latest Weather Observations for Cape Moreton

IDQ60801

Issued at 8:02 am EST Wednesday 2 September 2015 (issued every 30 minutes, with the page automatically refreshed every 10 minutes)

About weather observations | Map of weather stations | Latest weather observations for QLD | Other Formats
Station Details ID: 040043 Name: CAPE MORETON LIGHTHOUSE Lat: -27.03 Lon: 153.47 Height: 99.9 m
Data from the previous 72 hours. | See also: Recent months at Cape Moreton
Date/Time
EST
Temp
°C
App
Temp
°C
Dew
Point
Rel
Hum
%
Delta-T
°C
Wind Press
QNH
hPa
Press
MSL
hPa
Rain
since 9 am
mm
Dir
 
Spd
km/h
Gust
km/h
Spd
kts
Gust
kts
02/08:00am 16.6 15.1 10.5 67 3.2 SW 9 15 5 8 1019.2 1019.0 0.0
02/07:30am 15.5 11.9 9.8 69 3.0 WSW 19 22 10 12 1018.8 1018.6 0.0
02/07:00am 14.9 12.2 9.1 68 3.0 SW 13 17 7 9 1018.6 1018.4 0.0
02/06:30am 15.2 11.9 8.0 62 3.6 SW 15 19 8 10 1018.3 1018.1 0.0
02/06:00am 15.1 11.2 9.5 69 2.9 WSW 20 22 11 12 1018.1 1017.8 0.0
02/05:30am 14.7 10.4 7.0 60 3.8 WSW 19 20 10 11 1017.9 1017.6 0.0
02/05:00am 14.9 10.9 6.7 58 4.0 SW 17 19 9 10 1017.4 1017.1 0.0
02/04:30am 16.0 11.9 6.4 53 4.7 SSW 17 17 9 9 1016.9 1016.6 0.0
02/04:00am 14.9 11.2 7.9 63 3.5 SW 17 20 9 11 1016.7 1016.4 0.0
02/03:30am 15.4 11.9 8.9 65 3.3 SW 17 17 9 9 1016.6 1016.3 0.0
02/03:00am 15.0 10.8 8.3 64 3.4 WSW 20 20 11 11 1016.8 1016.5 0.0
02/02:30am 15.2 11.5 8.0 62 3.6 WSW 17 19 9 10 1017.0 1016.7 0.0
02/02:00am 15.9 12.9 9.3 65 3.4 WSW 15 19 8 10 1017.1 1016.8 0.0
02/01:30am 16.1 14.3 12.1 77 2.2 WSW 13 17 7 9 1017.1 1016.8 0.0
02/01:00am 16.7 14.6 12.5 76 2.3 WNW 15 19 8 10 1016.9 1016.6 0.0
02/12:30am 17.2 14.5 12.9 76 2.4 WNW 19 24 10 13 1016.9 1016.6 0.0
02/12:00am 17.3 14.6 13.0 76 2.4 WNW 19 26 10 14 1016.7 1016.4 0.0
 
Date/Time
EST
Temp
°C
App
Temp
°C
Dew
Point
Rel
Hum
%
Delta-T
°C
Wind Press
QNH
hPa
Press
MSL
hPa
Rain
since 9 am
mm
Dir
 
Spd
km/h
Gust
km/h
Spd
kts
Gust
kts
01/11:30pm 17.6 14.8 12.7 73 2.7 NW 19 24 10 13 1016.7 1016.4 0.0
01/11:00pm 17.8 15.2 13.1 74 2.6 NW 19 24 10 13 1016.6 1016.3 0.0
01/10:30pm 18.0 15.4 13.9 77 2.3 NW 20 30 11 16 1016.6 1016.3 0.0
01/10:00pm 18.4 15.8 13.7 74 2.7 NW 20 30 11 16 1016.6 1016.3 0.0
01/09:30pm 18.4 15.5 13.0 71 3.1 NNW 20 28 11 15 1016.5 1016.2 0.0
01/09:00pm 18.3 15.5 12.5 69 3.2 NNW 19 26 10 14 1016.3 1016.0 0.0
01/08:30pm 18.2 14.6 12.0 67 3.4 NW 22 30 12 16 1016.3 1016.0 0.0
01/08:00pm 18.2 14.6 11.7 66 3.6 NW 22 28 12 15 1016.0 1015.7 0.0
01/07:30pm 18.2 14.5 11.5 65 3.7 NW 22 28 12 15 1015.7 1015.4 0.0
01/07:00pm 18.1 15.0 11.7 66 3.5 NNW 19 22 10 12 1015.4 1015.1 0.0
01/06:30pm 18.2 14.7 10.3 60 4.2 NNW 19 24 10 13 1015.1 1014.8 0.0
01/06:00pm 18.3 14.9 10.4 60 4.2 NNW 19 24 10 13 1014.8 1014.5 0.0
01/05:30pm 18.5 14.3 7.6 49 5.6 NNW 19 22 10 12 1014.4 1014.1 0.0
01/05:00pm 18.6 15.9 10.2 58 4.5 N 15 19 8 10 1014.2 1013.9 0.0
01/04:30pm 19.1 16.5 9.3 53 5.2 N 13 17 7 9 1014.1 1013.8 0.0
01/04:00pm 19.4 16.4 9.3 52 5.4 N 15 19 8 10 1014.1 1013.8 0.0
01/03:30pm 20.0 17.7 10.4 54 5.2 N 13 17 7 9 1013.9 1013.6 0.0
01/03:00pm 19.7 16.8 6.4 42 6.7 N 11 13 6 7 1014.0 1013.7 0.0
01/02:30pm 19.3 16.2 7.4 46 6.1 NNW 13 19 7 10 1014.4 1014.1 0.0
01/02:00pm 20.5 17.4 7.2 42 6.8 W 13 17 7 9 1014.6 1014.3 0.0
01/01:30pm 20.4 15.9 4.4 35 7.8 W 17 24 9 13 1014.7 1014.4 0.0
01/01:00pm 20.2 15.8 4.7 36 7.6 W 17 26 9 14 1015.1 1014.8 0.0
01/12:30pm 20.4 16.1 5.2 37 7.5 WSW 17 26 9 14 1015.4 1015.1 0.0
01/12:00pm 19.7 16.3 3.8 35 7.6 SW 11 19 6 10 1015.8 1015.5 0.0
01/11:30am 19.3 16.3 7.7 47 6.0 SW 13 24 7 13 1016.2 1015.9 0.0
01/11:00am 19.5 16.8 9.1 51 5.5 SW 13 20 7 11 1016.7 1016.4 0.0
01/10:30am 18.4 14.7 8.1 51 5.3 SW 17 26 9 14 1017.1 1016.8 0.0
01/10:00am 17.9 14.3 8.2 53 5.0 SW 17 26 9 14 1017.2 1016.9 0.0
01/09:30am 17.2 12.4 7.5 53 4.9 SW 22 32 12 17 1017.2 1017.0 0.0
01/09:00am 16.2 10.1 6.6 53 4.7 WSW 28 35 15 19 1017.2 1017.0 0.0
01/08:30am 15.7 10.6 7.7 59 4.0 WSW 24 33 13 18 1017.1 1016.9 0.0
01/08:00am 15.1 10.8 7.9 62 3.6 WSW 20 32 11 17 1016.9 1016.7 0.0
01/07:30am 14.5 9.5 8.0 65 3.3 WSW 24 32 13 17 1016.5 1016.3 0.0
01/07:00am 13.4 8.7 7.8 69 2.8 WSW 22 28 12 15 1016.1 1015.9 0.0
01/06:30am 13.0 7.9 7.7 70 2.6 WSW 24 30 13 16 1015.9 1015.7 0.0
01/06:00am 13.0 7.9 7.5 69 2.7 WSW 24 30 13 16 1015.5 1015.3 0.0
01/05:30am 13.0 7.9 7.7 70 2.6 WSW 24 30 13 16 1015.3 1015.1 0.0
01/05:00am 12.9 8.2 7.8 71 2.5 WSW 22 28 12 15 1014.9 1014.7 0.0
01/04:30am 13.4 8.3 7.6 68 2.9 WSW 24 28 13 15 1014.8 1014.6 0.0
01/04:00am 13.5 8.2 6.8 64 3.2 WSW 24 28 13 15 1014.9 1014.7 0.0
01/03:30am 13.7 8.8 6.8 63 3.4 SW 22 30 12 16 1014.9 1014.7 0.0
01/03:00am 13.8 9.3 6.9 63 3.4 SW 20 28 11 15 1015.0 1014.8 0.0
01/02:30am 14.1 9.5 6.5 60 3.7 SW 20 26 11 14 1014.9 1014.7 0.0
01/02:00am 14.0 9.5 6.1 59 3.8 SW 19 26 10 14 1015.2 1015.0 0.0
01/01:30am 14.1 9.5 6.5 60 3.7 SW 20 26 11 14 1015.5 1015.3 0.0
01/01:00am 14.4 9.8 6.5 59 3.8 SW 20 24 11 13 1015.7 1015.5 0.0
01/12:30am 14.6 10.5 6.2 57 4.1 SW 17 22 9 12 1015.9 1015.7 0.0
01/12:00am 15.0 9.9 5.8 54 4.4 SW 22 28 12 15 1015.9 1015.7 0.0
 
Date/Time
EST
Temp
°C
App
Temp
°C
Dew
Point
Rel
Hum
%
Delta-T
°C
Wind Press
QNH
hPa
Press
MSL
hPa
Rain
since 9 am
mm
Dir
 
Spd
km/h
Gust
km/h
Spd
kts
Gust
kts
31/11:30pm 15.2 9.7 6.0 54 4.4 SW 24 33 13 18 1015.9 1015.7 0.0
31/11:00pm 15.7 9.3 5.0 49 5.1 SW 28 39 15 21 1015.8 1015.6 0.0
31/10:30pm 15.8 10.4 6.5 54 4.6 WSW 24 35 13 19 1015.8 1015.6 0.0
31/10:00pm 16.6 12.7 9.3 62 3.8 W 20 28 11 15 1015.6 1015.4 0.0
31/09:30pm 17.3 13.6 10.2 63 3.8 W 20 26 11 14 1015.7 1015.5 0.0
31/09:00pm 17.3 14.1 11.3 68 3.3 WNW 19 22 10 12 1015.5 1015.3 0.0
31/08:30pm 17.4 14.4 10.5 64 3.7 NW 17 20 9 11 1015.3 1015.1 0.0
31/08:00pm 17.4 15.3 11.0 66 3.5 NW 13 17 7 9 1015.3 1015.1 0.0
31/07:30pm 17.4 15.3 11.2 67 3.4 NNW 13 15 7 8 1015.2 1015.0 0.0
31/07:00pm 17.7 15.9 10.8 64 3.7 NNW 11 15 6 8 1014.8 1014.6 0.0
31/06:30pm 17.8 16.2 11.4 66 3.5 NNE 11 13 6 7 1014.4 1014.2 0.0
31/06:00pm 17.2 15.3 11.7 70 3.0 ENE 13 17 7 9 1014.1 1013.9 0.0
31/05:30pm 17.2 15.1 11.2 68 3.3 ENE 13 17 7 9 1014.0 1013.8 0.0
31/05:00pm 17.6 14.9 11.6 68 3.3 E 17 20 9 11 1013.8 1013.6 0.0
31/04:30pm 17.9 15.1 11.5 66 3.5 E 17 20 9 11 1013.6 1013.4 0.0
31/04:00pm 17.9 15.2 11.7 67 3.4 E 17 20 9 11 1013.5 1013.3 0.0
31/03:30pm 18.3 15.6 11.8 66 3.6 E 17 20 9 11 1013.5 1013.3 0.0
31/03:00pm 18.5 15.8 11.8 65 3.7 ESE 17 19 9 10 1013.6 1013.4 0.0
31/02:30pm 18.6 15.9 11.7 64 3.8 ESE 17 19 9 10 1013.8 1013.6 0.0
31/02:00pm 18.9 16.3 11.9 64 3.9 ESE 17 20 9 11 1013.9 1013.7 0.0
31/01:30pm 19.0 16.0 11.8 63 4.0 SE 19 22 10 12 1014.2 1014.0 0.0
31/01:00pm 20.1 17.4 12.8 63 4.1 SE 19 22 10 12 1014.5 1014.3 0.0
31/12:30pm 19.3 16.2 12.1 63 4.0 SE 20 24 11 13 1014.6 1014.4 0.0
31/12:00pm 19.4 15.8 11.9 62 4.2 SE 22 26 12 14 1014.9 1014.7 0.0
31/11:30am 18.9 15.6 11.0 60 4.3 SE 19 26 10 14 1015.2 1015.0 0.0
31/11:00am 19.1 15.9 11.2 60 4.3 SE 19 24 10 13 1015.7 1015.5 0.0
31/10:30am 18.4 14.9 10.3 59 4.4 SSE 19 24 10 13 1016.0 1015.8 0.0
31/10:00am 19.0 16.8 10.8 59 4.5 SSE 13 20 7 11 1016.3 1016.1 0.0
31/09:30am 17.7 15.2 9.8 60 4.2 SW 13 20 7 11 1016.4 1016.2 0.0
31/09:00am 16.8 13.7 8.8 59 4.1 SSW 15 20 8 11 1016.6 1016.4 0.0
31/08:30am 16.8 13.4 9.2 61 4.0 SW 17 28 9 15 1016.6 1016.4 0.0
31/08:00am 15.5 11.5 8.3 62 3.6 SW 19 28 10 15 1016.3 1016.1 0.0
31/07:30am 14.6 10.0 8.1 65 3.3 SW 22 30 12 16 1016.0 1015.8 0.0
31/07:00am 13.7 9.4 7.9 68 2.9 SW 20 28 11 15 1015.7 1015.5 0.0
31/06:30am 13.1 8.7 7.5 69 2.7 SW 20 24 11 13 1015.6 1015.4 0.0
31/06:00am 13.1 8.3 7.3 68 2.8 SW 22 32 12 17 1015.3 1015.1 0.0
31/05:30am 13.2 7.9 7.0 66 3.0 SW 24 33 13 18 1015.0 1014.8 0.0
31/05:00am 13.3 8.4 6.9 65 3.1 SW 22 30 12 16 1014.9 1014.7 0.0
31/04:30am 13.7 8.0 6.6 62 3.4 SW 26 35 14 19 1014.9 1014.7 0.0
31/04:00am 13.7 8.4 6.8 63 3.3 SW 24 32 13 17 1014.7 1014.5 0.0
31/03:30am 13.4 8.2 7.2 66 3.0 SW 24 35 13 19 1014.6 1014.4 0.0
31/03:00am 13.4 7.8 7.0 65 3.1 WSW 26 32 14 17 1014.8 1014.6 0.0
31/02:30am 13.8 7.8 7.1 64 3.3 SW 28 35 15 19 1015.0 1014.8 0.0
31/02:00am 13.9 8.8 7.7 66 3.1 SW 24 32 13 17 1015.4 1015.2 0.0
31/01:30am 14.3 9.1 7.4 63 3.4 WSW 24 32 13 17 1015.6 1015.4 0.0
31/01:00am 14.6 9.6 7.9 64 3.3 SW 24 32 13 17 1015.6 1015.4 0.0
31/12:30am 14.8 9.3 7.6 62 3.6 SW 26 35 14 19 1015.8 1015.6 0.0
31/12:00am 15.0 8.9 6.6 57 4.1 SW 28 37 15 20 1016.0 1015.8 0.0
 
Date/Time
EST
Temp
°C
App
Temp
°C
Dew
Point
Rel
Hum
%
Delta-T
°C
Wind Press
QNH
hPa
Press
MSL
hPa
Rain
since 9 am
mm
Dir
 
Spd
km/h
Gust
km/h
Spd
kts
Gust
kts
30/11:30pm 15.5 10.6 6.8 56 4.3 SW 22 33 12 18 1016.1 1015.9 0.0
30/11:00pm 15.6 11.1 8.4 62 3.7 SW 22 32 12 17 1016.2 1016.0 0.0
30/10:30pm 16.1 14.9 12.7 80 1.9 SSW 11 19 6 10 1016.4 1016.2 0.0
30/10:00pm 16.4 11.5 8.4 59 4.1 WSW 24 30 13 16 1016.2 1016.0 0.0
30/09:30pm 16.1 11.2 6.8 54 4.6 WSW 22 28 12 15 1016.3 1016.1 0.0
30/09:00pm 16.4 11.9 7.1 54 4.6 WSW 20 28 11 15 1016.2 1016.0 0.0
30/08:30pm 16.4 11.4 6.5 52 4.9 WSW 22 28 12 15 1016.2 1016.0 0.0
30/08:00pm 16.6 12.0 6.7 52 4.9 WSW 20 24 11 13 1016.1 1015.9 0.0
30/07:30pm 16.5 12.5 6.6 52 4.9 SW 17 20 9 11 1015.9 1015.7 0.0
30/07:00pm 17.2 12.6 6.4 49 5.3 WSW 20 24 11 13 1015.4 1015.2 0.0
30/06:30pm 17.5 12.4 5.8 46 5.7 WSW 22 32 12 17 1015.0 1014.8 0.0
30/06:00pm 17.6 12.5 5.9 46 5.7 SW 22 28 12 15 1014.7 1014.5 0.0
30/05:30pm 17.7 13.3 6.6 48 5.5 SW 19 26 10 14 1014.4 1014.2 0.0
30/05:00pm 18.8 14.9 6.9 46 6.0 SW 17 26 9 14 1013.9 1013.7 0.0
30/04:30pm 19.7 15.1 6.4 42 6.7 SW 20 32 11 17 1013.7 1013.5 0.0
30/04:00pm 20.2 15.5 6.2 40 7.0 SW 20 33 11 18 1013.6 1013.4 0.0
30/03:30pm 20.4 16.0 6.7 41 7.0 SW 19 24 10 13 1013.9 1013.7 0.0
30/03:00pm 20.2 14.8 6.2 40 7.0 SW 24 35 13 19 1014.0 1013.8 0.0
30/02:30pm 20.7 16.4 7.7 43 6.7 SW 20 32 11 17 1014.2 1014.0 0.0
30/02:00pm 20.6 16.6 8.3 45 6.4 SW 19 30 10 16 1014.4 1014.2 0.0
30/01:30pm 20.2 15.6 8.2 46 6.3 SW 22 33 12 18 1014.5 1014.3 0.0
30/01:00pm 20.1 15.7 9.1 49 5.8 SW 22 37 12 20 1014.9 1014.7 0.0
30/12:30pm 19.9 16.4 10.3 54 5.2 SW 19 28 10 15 1015.3 1015.1 0.0
30/12:00pm 19.1 14.3 9.0 52 5.3 SW 24 37 13 20 1015.7 1015.5 0.0
30/11:30am 18.9 14.3 9.7 55 4.9 SW 24 37 13 20 1016.3 1016.1 0.0
30/11:00am 18.3 13.1 8.8 54 4.9 SW 26 37 14 20 1016.7 1016.5 0.0
30/10:30am 17.3 13.2 10.0 62 3.9 SW 22 30 12 16 1017.1 1016.9 0.0
30/10:00am 18.2 14.9 11.5 65 3.7 SW 20 32 11 17 1017.4 1017.2 0.0
30/09:30am 17.2 13.0 11.0 67 3.4 WSW 24 35 13 19 1017.3 1017.1 0.0
30/09:00am 16.6 13.7 12.8 78 2.1 WSW 20 30 11 16 1017.6 1017.4 17.0
30/08:30am 15.7 13.2 13.5 87 1.2 WSW 19 26 10 14 1017.5 1017.3 17.0

Other Formats:

Comma delimited format used in spreadsheet applications
http://www.bom.gov.au/fwo/IDQ60801/IDQ60801.94594.axf

JavaScript Object Notation format (JSON) in row-major order
http://www.bom.gov.au/fwo/IDQ60801/IDQ60801.94594.json